Time;durP1;ratioP1;P1;durP2;ratioP2;P2;SDS_P1;SDS_P2;PMS_P1;PMS_P2;Temp;Humidity;BMP_temperature;BMP_pressure;BME280_temperature;BME280_humidity;BME280_pressure;Samples;Min_cycle;Max_cycle;Signal;HPM_P1;HPM_P2
2023/05/26 00:01:14;;;;;;;9.03;2.50;;;11.50;99.90;;;;;;5030154;28;20021;-55
2023/05/26 00:03:44;;;;;;;11.67;2.70;;;11.40;99.90;;;;;;5030080;28;20029;-53
2023/05/26 00:06:11;;;;;;;9.07;2.53;;;11.50;99.90;;;;;;5030440;28;20041;-57
2023/05/26 00:08:38;;;;;;;11.47;2.50;;;11.40;99.90;;;;;;5030551;28;20048;-56
2023/05/26 00:11:04;;;;;;;7.20;1.90;;;11.40;99.90;;;;;;5030290;28;20030;-56
2023/05/26 00:13:30;;;;;;;15.03;2.67;;;11.30;99.90;;;;;;5030247;28;20056;-56
2023/05/26 00:15:56;;;;;;;11.87;2.27;;;11.30;99.90;;;;;;5030338;28;20486;-54
2023/05/26 00:18:26;;;;;;;14.23;2.63;;;11.30;99.90;;;;;;5030665;28;20433;-55
2023/05/26 00:20:55;;;;;;;12.33;2.00;;;11.20;99.90;;;;;;5030304;28;20473;-54
2023/05/26 00:23:21;;;;;;;7.80;1.30;;;11.20;99.90;;;;;;5029988;28;20095;-56
2023/05/26 00:25:49;;;;;;;7.90;1.70;;;11.20;99.90;;;;;;5030207;28;20072;-56
2023/05/26 00:28:16;;;;;;;11.33;1.70;;;11.20;99.90;;;;;;5030266;28;20039;-56
2023/05/26 00:30:41;;;;;;;15.30;2.63;;;11.10;99.90;;;;;;5028856;28;20119;-56
2023/05/26 00:33:07;;;;;;;7.23;1.60;;;11.10;99.90;;;;;;5030375;28;20060;-56
2023/05/26 00:35:33;;;;;;;7.40;1.80;;;11.10;99.90;;;;;;5029066;28;20132;-56
2023/05/26 00:37:59;;;;;;;11.07;1.70;;;11.10;99.90;;;;;;5030483;28;20040;-53
2023/05/26 00:40:25;;;;;;;7.83;1.30;;;11.10;99.90;;;;;;5030632;28;20426;-53
2023/05/26 00:42:50;;;;;;;6.97;2.03;;;11.00;99.90;;;;;;5033721;28;20072;-53
2023/05/26 00:45:16;;;;;;;8.70;1.53;;;10.90;99.90;;;;;;5033558;28;20489;-56
2023/05/26 00:47:42;;;;;;;7.87;1.97;;;10.90;99.90;;;;;;5032181;28;20461;-55
2023/05/26 00:50:08;;;;;;;9.80;2.03;;;10.80;99.90;;;;;;5033703;28;20026;-54
2023/05/26 00:52:34;;;;;;;6.50;1.40;;;10.80;99.90;;;;;;5033706;28;20080;-56
2023/05/26 00:55:02;;;;;;;8.97;2.03;;;10.80;99.90;;;;;;5032562;28;20025;-54
2023/05/26 00:57:29;;;;;;;10.80;1.80;;;10.80;99.90;;;;;;5032157;28;20441;-53
2023/05/26 00:59:56;;;;;;;8.70;1.67;;;10.70;99.90;;;;;;5033320;28;20267;-55
2023/05/26 01:02:22;;;;;;;11.00;2.00;;;10.70;99.90;;;;;;5032855;28;20119;-54
2023/05/26 01:04:52;;;;;;;11.83;1.90;;;10.70;99.90;;;;;;5033159;28;20029;-53
2023/05/26 01:07:20;;;;;;;7.73;1.60;;;10.70;99.90;;;;;;5033305;28;20378;-55
2023/05/26 01:09:47;;;;;;;14.33;2.20;;;10.70;99.90;;;;;;5033143;28;20026;-54
2023/05/26 01:12:18;;;;;;;8.20;1.77;;;10.60;99.90;;;;;;5031704;28;20139;-53
2023/05/26 01:14:52;;;;;;;11.60;2.10;;;10.60;99.90;;;;;;5032947;28;20033;-54
2023/05/26 01:17:25;;;;;;;9.70;2.13;;;10.50;99.90;;;;;;5031661;28;20048;-55
2023/05/26 01:20:09;;;;;;;10.27;1.93;;;10.50;99.90;;;;;;5032973;28;20063;-55
2023/05/26 01:22:40;;;;;;;12.53;2.10;;;10.40;99.90;;;;;;5031279;28;20040;-52
2023/05/26 01:25:16;;;;;;;9.80;2.00;;;10.40;99.90;;;;;;5031487;28;20553;-54
2023/05/26 01:27:48;;;;;;;8.40;2.17;;;10.30;99.90;;;;;;5032907;28;20029;-52
2023/05/26 01:30:14;;;;;;;12.50;1.90;;;10.30;99.90;;;;;;5032839;28;20022;-55
2023/05/26 01:32:49;;;;;;;11.77;1.90;;;10.30;99.90;;;;;;5032570;28;20037;-55
2023/05/26 01:35:15;;;;;;;12.33;2.10;;;10.30;99.90;;;;;;5031337;28;20119;-53
2023/05/26 01:37:43;;;;;;;11.13;2.30;;;10.20;99.90;;;;;;5031475;28;20505;-56
2023/05/26 01:40:11;;;;;;;7.40;2.20;;;10.20;99.90;;;;;;5032630;28;20496;-55
2023/05/26 01:42:41;;;;;;;7.53;1.50;;;10.20;99.90;;;;;;5032458;28;20036;-55
2023/05/26 01:45:14;;;;;;;14.37;2.27;;;10.20;99.90;;;;;;5031139;28;20163;-55
2023/05/26 01:47:45;;;;;;;7.17;2.00;;;10.10;99.90;;;;;;5031215;28;20036;-55
2023/05/26 01:50:12;;;;;;;;;;;10.00;99.90;;;;;;5033065;28;20421;-55
2023/05/26 01:52:42;;;;;;;9.93;2.07;;;10.00;99.90;;;;;;5031383;28;19996;-54
2023/05/26 01:55:11;;;;;;;13.50;2.17;;;10.00;99.90;;;;;;5032844;28;20381;-50
2023/05/26 01:57:40;;;;;;;12.00;2.43;;;9.90;99.90;;;;;;5031402;28;20083;-54
2023/05/26 02:00:09;;;;;;;13.00;2.22;;;9.90;99.90;;;;;;5031548;28;20083;-55
2023/05/26 02:02:40;;;;;;;7.37;1.47;;;9.90;99.90;;;;;;5033156;28;20125;-55
2023/05/26 02:05:06;;;;;;;16.80;2.77;;;9.80;99.90;;;;;;5031616;28;20128;-55
2023/05/26 02:07:34;;;;;;;9.57;1.97;;;9.80;99.90;;;;;;5033231;28;20033;-51
2023/05/26 02:10:02;;;;;;;15.57;2.47;;;9.80;99.90;;;;;;5032432;28;20029;-53
2023/05/26 02:12:27;;;;;;;6.47;1.70;;;9.70;99.90;;;;;;5032190;28;20044;-54
2023/05/26 02:14:53;;;;;;;15.37;2.40;;;9.80;99.90;;;;;;5033984;28;20390;-53
2023/05/26 02:17:19;;;;;;;11.27;1.87;;;9.70;99.90;;;;;;5032598;28;20038;-54
2023/05/26 02:19:44;;;;;;;12.33;2.10;;;9.70;99.90;;;;;;5031735;28;20033;-55
2023/05/26 02:22:12;;;;;;;6.03;1.70;;;9.70;99.90;;;;;;5030198;28;20041;-56
2023/05/26 02:24:39;;;;;;;10.23;2.30;;;9.70;99.90;;;;;;5030205;28;20091;-55
2023/05/26 02:27:05;;;;;;;9.20;1.60;;;9.70;99.90;;;;;;5030195;28;20116;-55
2023/05/26 02:29:30;;;;;;;9.43;2.10;;;9.70;99.90;;;;;;5030585;28;20155;-56
2023/05/26 02:31:56;;;;;;;7.07;1.63;;;9.60;99.90;;;;;;5030125;28;20149;-56
2023/05/26 02:34:22;;;;;;;12.10;2.43;;;9.60;99.90;;;;;;5030042;28;20044;-56
2023/05/26 02:36:49;;;;;;;9.77;1.87;;;9.50;99.90;;;;;;5030178;28;20038;-53
2023/05/26 02:39:16;;;;;;;10.20;2.33;;;9.50;99.90;;;;;;5031457;28;20034;-53
2023/05/26 02:41:41;;;;;;;6.77;1.90;;;9.50;99.90;;;;;;5031040;28;20029;-55
2023/05/26 02:44:08;;;;;;;12.77;2.63;;;9.50;99.90;;;;;;5031343;28;20026;-57
2023/05/26 02:46:33;;;;;;;10.27;2.80;;;9.40;99.90;;;;;;5029975;28;20064;-56
2023/05/26 02:49:00;;;;;;;13.23;2.00;;;9.40;99.90;;;;;;5030013;28;20462;-55
2023/05/26 02:51:26;;;;;;;6.60;2.03;;;9.40;99.90;;;;;;5031099;28;20029;-55
2023/05/26 02:53:52;;;;;;;12.97;2.13;;;9.30;99.90;;;;;;5029852;28;20508;-53
2023/05/26 02:56:18;;;;;;;12.40;2.77;;;9.30;99.90;;;;;;5029847;28;20034;-56
2023/05/26 02:58:43;;;;;;;12.10;1.90;;;9.20;99.90;;;;;;5031146;28;20029;-55
2023/05/26 03:01:09;;;;;;;10.37;2.60;;;9.20;99.90;;;;;;5030761;28;20065;-57
2023/05/26 03:03:35;;;;;;;9.40;2.37;;;9.10;99.90;;;;;;5030524;28;20030;-57
2023/05/26 03:06:02;;;;;;;13.70;2.67;;;9.10;99.90;;;;;;5029790;28;20155;-56
2023/05/26 03:08:28;;;;;;;8.60;2.03;;;9.10;99.90;;;;;;5029717;28;20080;-56
2023/05/26 03:10:54;;;;;;;8.90;2.20;;;9.10;99.90;;;;;;5029342;28;20104;-55
2023/05/26 03:13:20;;;;;;;13.97;2.90;;;9.10;99.90;;;;;;5030774;28;20541;-56
2023/05/26 03:15:48;;;;;;;9.93;1.90;;;8.90;99.90;;;;;;5029515;28;20033;-55
2023/05/26 03:18:16;;;;;;;12.23;2.80;;;9.00;99.90;;;;;;5029580;28;20092;-52
2023/05/26 03:20:46;;;;;;;12.80;2.23;;;9.00;99.90;;;;;;5030701;28;20465;-56
2023/05/26 03:23:15;;;;;;;13.43;2.07;;;9.00;99.90;;;;;;5029337;28;20036;-55
2023/05/26 03:25:41;;;;;;;13.25;1.90;;;9.00;99.90;;;;;;5030617;28;20440;-56
2023/05/26 03:28:07;;;;;;;9.90;2.13;;;9.00;99.90;;;;;;5029383;28;20034;-56
2023/05/26 03:30:32;;;;;;;11.20;2.20;;;9.00;99.90;;;;;;5029183;28;20109;-53
2023/05/26 03:33:00;;;;;;;9.90;2.63;;;9.10;99.90;;;;;;5029513;28;20437;-54
2023/05/26 03:35:27;;;;;;;8.57;2.03;;;9.10;99.90;;;;;;5029231;28;20087;-55
2023/05/26 03:37:53;;;;;;;11.07;1.70;;;9.10;99.90;;;;;;5029381;28;20057;-56
2023/05/26 03:40:19;;;;;;;11.80;2.33;;;9.20;99.90;;;;;;5029149;28;20429;-54
2023/05/26 03:42:45;;;;;;;8.50;2.33;;;9.10;99.90;;;;;;5029202;28;20079;-54
2023/05/26 03:45:15;;;;;;;19.57;2.80;;;9.10;99.90;;;;;;5030464;28;20152;-52
2023/05/26 03:47:42;;;;;;;16.37;2.37;;;9.00;99.90;;;;;;5029436;28;20025;-55
2023/05/26 03:50:08;;;;;;;13.07;2.53;;;9.00;99.90;;;;;;5029241;28;20018;-56
2023/05/26 03:52:36;;;;;;;13.23;3.13;;;9.10;99.90;;;;;;5029130;28;20033;-56
2023/05/26 03:55:03;;;;;;;10.87;2.03;;;9.10;99.90;;;;;;5029370;28;20104;-56
2023/05/26 03:57:29;;;;;;;17.57;2.90;;;9.10;99.90;;;;;;5029504;28;20502;-53
2023/05/26 03:59:55;;;;;;;10.27;2.23;;;9.20;99.90;;;;;;5029322;28;20030;-55
2023/05/26 04:02:22;;;;;;;13.57;2.40;;;9.20;99.90;;;;;;5029065;28;20066;-55
2023/05/26 04:04:48;;;;;;;8.37;2.20;;;9.20;99.90;;;;;;5029258;28;20139;-53
2023/05/26 04:07:14;;;;;;;15.03;2.47;;;9.30;99.90;;;;;;5030353;28;20100;-56
2023/05/26 04:09:40;;;;;;;14.23;2.80;;;9.30;99.90;;;;;;5029365;28;20112;-55
2023/05/26 04:12:06;;;;;;;16.37;4.10;;;9.40;99.90;;;;;;5029161;28;20137;-55
2023/05/26 04:14:32;;;;;;;11.90;2.43;;;9.40;99.90;;;;;;5029676;28;20037;-56
2023/05/26 04:16:57;;;;;;;15.57;3.23;;;9.40;99.90;;;;;;5033282;28;20356;-53
2023/05/26 04:19:23;;;;;;;11.87;2.63;;;9.40;99.90;;;;;;5033248;28;20040;-55
2023/05/26 04:21:49;;;;;;;9.30;2.40;;;9.40;99.90;;;;;;5032676;28;20045;-56
2023/05/26 04:24:16;;;;;;;13.00;2.70;;;9.50;99.90;;;;;;5016631;28;20037;-56
2023/05/26 04:26:42;;;;;;;12.27;2.67;;;9.50;99.90;;;;;;5034237;28;20022;-55
2023/05/26 04:29:10;;;;;;;13.30;2.67;;;9.50;99.90;;;;;;5033958;28;20033;-52
2023/05/26 04:32:02;;;;;;;11.60;3.10;;;9.50;99.90;;;;;;5033283;28;20030;-54
2023/05/26 04:34:50;;;;;;;14.40;3.77;;;9.50;99.90;;;;;;5032464;28;20037;-56
2023/05/26 04:37:20;;;;;;;18.03;3.20;;;9.50;99.90;;;;;;5034018;28;20053;-55
2023/05/26 04:39:46;;;;;;;7.77;2.23;;;9.60;99.90;;;;;;5033917;28;20033;-56
2023/05/26 04:42:12;;;;;;;11.37;2.10;;;9.60;99.90;;;;;;5032050;28;20124;-54
2023/05/26 04:44:40;;;;;;;8.03;2.00;;;9.70;99.90;;;;;;5032150;28;20032;-57
2023/05/26 04:47:08;;;;;;;12.50;2.60;;;9.80;99.90;;;;;;5032340;28;20037;-56
2023/05/26 04:49:36;;;;;;;11.73;2.60;;;9.70;99.90;;;;;;5032514;28;20113;-56
2023/05/26 04:52:02;;;;;;;11.03;2.30;;;9.70;99.90;;;;;;5032079;28;20030;-53
2023/05/26 04:54:27;;;;;;;17.90;3.23;;;9.70;99.90;;;;;;5033316;28;20421;-55
2023/05/26 04:56:54;;;;;;;11.63;2.30;;;9.70;99.90;;;;;;5032117;28;20060;-51
2023/05/26 04:59:23;;;;;;;16.43;3.17;;;9.70;99.90;;;;;;5032094;28;20116;-53
2023/05/26 05:01:49;;;;;;;13.93;2.40;;;9.70;99.90;;;;;;5031655;28;20509;-53
2023/05/26 05:04:24;;;;;;;9.53;2.43;;;9.70;99.90;;;;;;5033155;28;20021;-53
2023/05/26 05:06:54;;;;;;;11.90;2.50;;;9.70;99.90;;;;;;5032052;28;20044;-54
2023/05/26 05:09:21;;;;;;;8.97;2.33;;;9.70;99.90;;;;;;5033366;28;20022;-56
2023/05/26 05:11:47;;;;;;;10.20;2.57;;;9.70;99.90;;;;;;5031341;28;20029;-54
2023/05/26 05:14:13;;;;;;;15.83;3.73;;;9.70;99.90;;;;;;5031558;28;20034;-53
2023/05/26 05:16:41;;;;;;;13.03;2.43;;;9.80;99.90;;;;;;5031703;28;20108;-54
2023/05/26 05:19:07;;;;;;;14.17;2.40;;;9.90;99.90;;;;;;5031727;28;20663;-55
2023/05/26 05:21:39;;;;;;;9.53;2.30;;;10.00;99.90;;;;;;5031329;28;20029;-53
2023/05/26 05:24:06;;;;;;;13.53;2.37;;;10.00;99.90;;;;;;5031451;28;20033;-54
2023/05/26 05:26:32;;;;;;;13.53;2.53;;;10.00;99.90;;;;;;5031703;28;20160;-56
2023/05/26 05:28:58;;;;;;;14.57;4.07;;;10.00;99.90;;;;;;5031733;28;20572;-56
2023/05/26 05:31:38;;;;;;;9.07;2.10;;;10.00;99.90;;;;;;5031413;28;20059;-51
2023/05/26 05:34:04;;;;;;;14.07;2.90;;;9.90;99.90;;;;;;5031305;28;20030;-55
2023/05/26 05:36:31;;;;;;;9.97;3.27;;;10.00;99.90;;;;;;5031460;28;20026;-54
2023/05/26 05:38:57;;;;;;;9.10;2.00;;;10.00;99.90;;;;;;5031231;28;20438;-56
2023/05/26 05:41:24;;;;;;;12.80;2.77;;;10.00;99.90;;;;;;5031230;28;20025;-50
2023/05/26 05:43:49;;;;;;;11.20;2.40;;;10.00;99.90;;;;;;5031018;28;20028;-51
2023/05/26 05:46:15;;;;;;;12.47;2.67;;;10.00;99.90;;;;;;5031191;28;20025;-55
2023/05/26 05:48:53;;;;;;;10.63;2.57;;;10.00;99.90;;;;;;5031250;28;20073;-56
2023/05/26 05:51:26;;;;;;;9.00;2.60;;;10.10;99.90;;;;;;5030684;28;20033;-56
2023/05/26 05:53:51;;;;;;;8.43;2.00;;;10.20;99.90;;;;;;5031122;28;20036;-54
2023/05/26 05:56:18;;;;;;;14.57;2.27;;;10.30;99.90;;;;;;5030986;28;20117;-56
2023/05/26 05:58:44;;;;;;;8.13;2.77;;;10.30;99.90;;;;;;5030825;28;20116;-55
2023/05/26 06:01:12;;;;;;;9.03;2.23;;;10.40;99.90;;;;;;5030514;28;20025;-55
2023/05/26 06:03:37;;;;;;;9.93;2.60;;;10.50;99.90;;;;;;5030540;28;20039;-54
2023/05/26 06:06:05;;;;;;;12.43;3.17;;;10.60;99.90;;;;;;5030632;28;20440;-53
2023/05/26 06:08:31;;;;;;;9.70;2.63;;;10.60;99.90;;;;;;5030842;28;20402;-54
2023/05/26 06:10:56;;;;;;;11.60;2.83;;;10.60;99.90;;;;;;5030512;28;20033;-56
2023/05/26 06:13:23;;;;;;;11.37;2.90;;;10.60;99.90;;;;;;5030558;28;20116;-54
2023/05/26 06:15:48;;;;;;;11.57;2.77;;;10.70;99.90;;;;;;5031867;28;20561;-56
2023/05/26 06:18:14;;;;;;;9.00;3.27;;;10.80;99.90;;;;;;5030347;28;20104;-54
2023/05/26 06:20:40;;;;;;;13.23;3.33;;;10.90;99.90;;;;;;5030200;28;20040;-52
2023/05/26 06:23:06;;;;;;;17.50;3.30;;;11.00;99.90;;;;;;5031804;28;20048;-52
2023/05/26 06:25:33;;;;;;;15.50;3.40;;;11.10;99.90;;;;;;5030226;28;20052;-55
2023/05/26 06:28:00;;;;;;;14.70;4.10;;;11.00;99.90;;;;;;5030868;28;20025;-53
2023/05/26 06:30:26;;;;;;;15.70;4.30;;;11.10;99.90;;;;;;5030199;28;20068;-56
2023/05/26 06:33:02;;;;;;;10.20;3.27;;;11.10;99.90;;;;;;5030167;28;20037;-55
2023/05/26 06:35:28;;;;;;;8.83;3.43;;;11.10;99.90;;;;;;5030169;28;20034;-55
2023/05/26 06:37:54;;;;;;;15.83;3.50;;;11.20;99.90;;;;;;5029642;28;20057;-56
2023/05/26 06:40:20;;;;;;;16.73;3.53;;;11.20;99.90;;;;;;5031286;28;20030;-56
2023/05/26 06:42:46;;;;;;;12.60;3.80;;;11.10;99.90;;;;;;5030175;28;20488;-54
2023/05/26 06:45:12;;;;;;;15.57;4.00;;;11.30;99.90;;;;;;5030028;28;20129;-55
2023/05/26 06:47:38;;;;;;;16.03;3.47;;;11.50;99.90;;;;;;5029877;28;20029;-55
2023/05/26 06:50:10;;;;;;;11.40;3.17;;;11.70;99.90;;;;;;5029996;28;20091;-57
2023/05/26 06:52:37;;;;;;;12.73;2.90;;;11.90;99.90;;;;;;5030013;28;20053;-56
2023/05/26 06:55:03;;;;;;;10.87;3.03;;;12.00;99.90;;;;;;5031187;28;20329;-57
2023/05/26 06:57:29;;;;;;;13.33;3.33;;;12.10;99.90;;;;;;5029958;28;20409;-58
2023/05/26 06:59:55;;;;;;;14.67;3.23;;;12.20;99.90;;;;;;5029814;28;20031;-56
2023/05/26 07:02:21;;;;;;;16.57;3.97;;;12.30;99.90;;;;;;5029185;28;20025;-53
2023/05/26 07:04:49;;;;;;;9.15;2.78;;;12.40;99.90;;;;;;5029783;28;20040;-55
2023/05/26 07:07:16;;;;;;;8.93;2.93;;;12.50;99.90;;;;;;5029733;28;20033;-54
2023/05/26 07:09:42;;;;;;;10.48;3.20;;;12.60;99.90;;;;;;5029756;28;20379;-55
2023/05/26 07:12:11;;;;;;;12.65;3.13;;;12.60;99.90;;;;;;5029408;28;20104;-54
2023/05/26 07:14:46;;;;;;;11.93;3.03;;;12.70;99.90;;;;;;5029571;28;20505;-54
2023/05/26 07:17:13;;;;;;;15.13;2.63;;;12.80;99.90;;;;;;5030923;28;20037;-57
2023/05/26 07:19:42;;;;;;;17.27;3.22;;;12.80;99.90;;;;;;5029818;28;20051;-54
2023/05/26 07:22:07;;;;;;;10.60;2.80;;;13.00;99.90;;;;;;5030575;28;20086;-56
2023/05/26 07:24:37;;;;;;;10.10;2.95;;;13.10;99.90;;;;;;5029358;28;20034;-54
2023/05/26 07:27:04;;;;;;;10.35;2.75;;;13.10;99.90;;;;;;5029415;28;20028;-53
2023/05/26 07:29:29;;;;;;;14.10;3.45;;;13.20;99.90;;;;;;5029444;28;20331;-53
2023/05/26 07:31:56;;;;;;;12.85;3.33;;;13.30;99.90;;;;;;5030407;28;20024;-54
2023/05/26 07:34:22;;;;;;;9.85;2.55;;;13.30;99.90;;;;;;5029307;28;20021;-55
2023/05/26 07:36:47;;;;;;;12.85;2.80;;;13.50;99.90;;;;;;5030662;28;20021;-57
2023/05/26 07:39:13;;;;;;;16.15;2.67;;;13.60;99.90;;;;;;5029205;28;20053;-54
2023/05/26 07:41:39;;;;;;;8.90;1.92;;;13.70;99.90;;;;;;5030363;28;20251;-53
2023/05/26 07:44:05;;;;;;;13.85;2.35;;;13.80;99.90;;;;;;5030424;28;20087;-55
2023/05/26 07:46:31;;;;;;;14.02;2.53;;;13.80;99.90;;;;;;5030492;28;20021;-54
2023/05/26 07:48:56;;;;;;;13.90;3.00;;;13.90;99.90;;;;;;5030704;28;20026;-57
2023/05/26 07:51:22;;;;;;;6.75;1.98;;;13.90;99.90;;;;;;5033847;28;20025;-57
2023/05/26 07:53:48;;;;;;;17.77;2.40;;;13.90;99.90;;;;;;5034599;28;20060;-56
2023/05/26 07:56:13;;;;;;;10.68;3.20;;;14.00;99.90;;;;;;5034449;28;20095;-54
2023/05/26 07:58:40;;;;;;;14.45;2.35;;;14.10;99.90;;;;;;5034440;28;20029;-52
2023/05/26 08:01:06;;;;;;;9.95;2.50;;;14.30;99.90;;;;;;5034106;28;20037;-55
2023/05/26 08:03:35;;;;;;;12.23;2.50;;;14.40;99.90;;;;;;5034083;28;20037;-57
2023/05/26 08:06:01;;;;;;;12.15;2.95;;;14.40;99.90;;;;;;5034560;28;20041;-55
2023/05/26 08:08:27;;;;;;;9.85;2.20;;;14.30;99.90;;;;;;5034317;28;20036;-56
2023/05/26 08:10:53;;;;;;;13.70;2.50;;;14.30;99.90;;;;;;5033899;28;20513;-56
2023/05/26 08:13:18;;;;;;;13.35;3.03;;;14.30;99.90;;;;;;5034522;28;20053;-57
2023/05/26 08:15:44;;;;;;;14.48;2.30;;;14.30;99.90;;;;;;5034139;28;20029;-56
2023/05/26 08:18:10;;;;;;;10.95;2.42;;;14.40;99.90;;;;;;5034353;28;20033;-53
2023/05/26 08:20:36;;;;;;;12.38;2.55;;;14.60;99.90;;;;;;5034018;28;20033;-54
2023/05/26 08:23:02;;;;;;;9.15;1.92;;;14.50;99.90;;;;;;5034085;28;20037;-56
2023/05/26 08:25:28;;;;;;;14.52;2.33;;;14.60;99.90;;;;;;5033878;28;20025;-55
2023/05/26 08:27:54;;;;;;;8.35;2.13;;;14.70;99.90;;;;;;5034087;28;20036;-55
2023/05/26 08:30:20;;;;;;;14.02;3.72;;;14.70;99.90;;;;;;5033844;28;20103;-55
2023/05/26 08:32:45;;;;;;;11.85;2.97;;;14.80;99.90;;;;;;5034040;28;20390;-52
2023/05/26 08:35:11;;;;;;;15.00;4.75;;;14.80;99.90;;;;;;5033802;28;20033;-53
2023/05/26 08:37:37;;;;;;;8.40;2.60;;;14.80;99.90;;;;;;5033713;28;20040;-52
2023/05/26 08:40:04;;;;;;;8.02;2.75;;;14.80;99.90;;;;;;5033664;28;20051;-50
2023/05/26 08:42:33;;;;;;;12.43;2.58;;;14.80;99.90;;;;;;5033528;28;20042;-52
2023/05/26 08:45:00;;;;;;;10.85;2.72;;;14.90;99.90;;;;;;5033698;28;20053;-54
2023/05/26 08:47:26;;;;;;;9.77;2.40;;;15.00;99.90;;;;;;5033925;28;20465;-50
2023/05/26 08:49:57;;;;;;;8.77;2.10;;;15.00;99.90;;;;;;5033873;28;20113;-57
2023/05/26 08:52:23;;;;;;;11.98;2.17;;;15.10;99.90;;;;;;5033359;28;20037;-57
2023/05/26 08:54:50;;;;;;;12.70;2.58;;;15.10;99.90;;;;;;5033589;28;20128;-57
2023/05/26 08:57:18;;;;;;;9.82;2.10;;;15.20;99.90;;;;;;5033697;28;20034;-53
2023/05/26 08:59:46;;;;;;;12.13;2.40;;;15.20;99.90;;;;;;5033728;28;20052;-54
2023/05/26 09:02:12;;;;;;;13.93;2.85;;;15.30;99.90;;;;;;5032902;28;20041;-57
2023/05/26 09:04:38;;;;;;;11.45;2.97;;;15.30;99.90;;;;;;5033456;28;20044;-55
2023/05/26 09:07:08;;;;;;;9.40;2.55;;;15.40;99.90;;;;;;5033339;28;20481;-54
2023/05/26 09:09:34;;;;;;;11.48;2.80;;;15.40;99.90;;;;;;5034012;28;20075;-56
2023/05/26 09:12:00;;;;;;;14.10;2.70;;;15.50;99.90;;;;;;5033316;28;20021;-56
2023/05/26 09:14:26;;;;;;;9.88;2.45;;;15.70;99.90;;;;;;5033447;28;20026;-55
2023/05/26 09:16:54;;;;;;;9.93;2.90;;;15.70;99.90;;;;;;5033711;28;20117;-56
2023/05/26 09:19:20;;;;;;;10.27;2.40;;;15.80;99.90;;;;;;5033261;28;20037;-56
2023/05/26 09:21:48;;;;;;;13.40;2.92;;;15.90;99.90;;;;;;5032567;28;20017;-56
2023/05/26 09:24:19;;;;;;;10.27;2.17;;;15.80;99.90;;;;;;5032902;28;20030;-55
2023/05/26 09:26:46;;;;;;;12.52;2.50;;;15.80;99.90;;;;;;5033122;28;20029;-56
2023/05/26 09:29:13;;;;;;;8.95;2.30;;;15.90;99.90;;;;;;5033110;28;20442;-57
2023/05/26 09:31:44;;;;;;;13.02;2.33;;;15.90;99.90;;;;;;5032606;28;20504;-53
2023/05/26 09:34:11;;;;;;;11.10;2.97;;;15.80;99.90;;;;;;5032557;28;20500;-53
2023/05/26 09:36:38;;;;;;;10.85;2.38;;;15.90;99.90;;;;;;5032775;28;20035;-56
2023/05/26 09:39:07;;;;;;;12.30;3.08;;;15.80;99.90;;;;;;5032744;28;20025;-56
2023/05/26 09:41:43;;;;;;;12.43;2.67;;;15.90;99.90;;;;;;5032662;28;20462;-55
2023/05/26 09:44:16;;;;;;;14.48;3.42;;;16.00;99.90;;;;;;5032376;28;20033;-54
2023/05/26 09:46:43;;;;;;;12.77;2.65;;;15.90;99.90;;;;;;5032523;28;20482;-53
2023/05/26 09:49:14;;;;;;;8.98;2.78;;;15.90;99.90;;;;;;5032408;28;20338;-57
2023/05/26 09:51:44;;;;;;;8.85;2.40;;;16.00;99.90;;;;;;5032165;28;20041;-55
2023/05/26 09:54:10;;;;;;;9.93;2.38;;;16.10;99.90;;;;;;5032348;28;20057;-56
2023/05/26 09:57:02;;;;;;;7.25;2.40;;;16.30;99.90;;;;;;5032492;28;20083;-55
2023/05/26 09:59:36;;;;;;;15.40;2.55;;;16.40;99.90;;;;;;5032400;28;20029;-57
2023/05/26 10:02:11;;;;;;;12.10;2.78;;;16.50;99.90;;;;;;5032083;28;20029;-54
2023/05/26 10:04:37;;;;;;;11.65;3.15;;;16.60;99.90;;;;;;5032073;28;20474;-55
2023/05/26 10:07:04;;;;;;;14.20;2.28;;;16.60;99.90;;;;;;5032028;28;20421;-56
2023/05/26 10:09:31;;;;;;;12.82;2.85;;;16.60;99.90;;;;;;5032036;28;20033;-57
2023/05/26 10:11:58;;;;;;;15.63;3.53;;;16.50;99.90;;;;;;5031231;28;20504;-55
2023/05/26 10:14:24;;;;;;;13.65;2.85;;;16.50;99.90;;;;;;5031376;28;20036;-57
2023/05/26 10:16:51;;;;;;;11.82;3.53;;;16.60;99.90;;;;;;5031997;28;20040;-56
2023/05/26 10:19:17;;;;;;;10.23;2.67;;;16.80;99.90;;;;;;5031998;28;20017;-57
2023/05/26 10:21:49;;;;;;;12.73;3.28;;;16.90;99.90;;;;;;5031463;28;20030;-55
2023/05/26 10:24:28;;;;;;;11.07;2.65;;;16.90;99.90;;;;;;5031582;28;20033;-54
2023/05/26 10:27:10;;;;;;;20.55;4.20;;;17.00;99.90;;;;;;5031867;28;20033;-56
2023/05/26 10:29:58;;;;;;;10.70;2.53;;;17.00;99.90;;;;;;5031818;28;20393;-57
2023/05/26 10:32:44;;;;;;;11.63;2.55;;;16.90;99.90;;;;;;5031475;28;20038;-56
2023/05/26 10:35:21;;;;;;;10.05;2.47;;;17.00;99.90;;;;;;5031345;28;20040;-57
2023/05/26 10:37:53;;;;;;;13.13;2.83;;;17.10;99.90;;;;;;5031650;28;20436;-54
2023/05/26 10:40:39;;;;;;;10.20;3.28;;;17.10;99.90;;;;;;5031265;28;20124;-57
2023/05/26 10:43:20;;;;;;;12.55;2.90;;;17.10;99.90;;;;;;5031211;28;20041;-54
2023/05/26 10:46:03;;;;;;;8.57;2.75;;;17.00;99.90;;;;;;5031582;28;20034;-57
2023/05/26 10:48:40;;;;;;;10.88;2.72;;;17.10;99.90;;;;;;5031346;28;20030;-53
2023/05/26 10:51:23;;;;;;;14.10;3.60;;;17.10;99.90;;;;;;5029858;28;20030;-57
2023/05/26 10:53:49;;;;;;;12.63;3.28;;;17.10;99.90;;;;;;5031092;28;20037;-57
2023/05/26 10:56:17;;;;;;;11.98;3.13;;;17.20;99.90;;;;;;5031385;28;20030;-55
2023/05/26 10:58:49;;;;;;;6.80;2.07;;;17.30;99.90;;;;;;5031162;28;20509;-55
2023/05/26 11:01:36;;;;;;;14.75;3.08;;;17.40;99.90;;;;;;5030935;28;20053;-57
2023/05/26 11:04:08;;;;;;;9.77;2.53;;;17.40;99.90;;;;;;5030465;28;20087;-57
2023/05/26 11:06:59;;;;;;;13.43;3.17;;;17.50;99.00;;;;;;5030962;28;20064;-56
2023/05/26 11:09:29;;;;;;;12.68;2.53;;;17.60;99.00;;;;;;5031016;28;20029;-57
2023/05/26 11:11:57;;;;;;;11.48;2.58;;;17.50;99.40;;;;;;5030863;28;20029;-56
2023/05/26 11:14:32;;;;;;;15.10;2.80;;;17.60;99.50;;;;;;5029500;28;20025;-55
2023/05/26 11:17:00;;;;;;;8.68;2.72;;;17.70;99.20;;;;;;5031084;28;20036;-57
2023/05/26 11:19:36;;;;;;;9.75;2.33;;;17.60;99.10;;;;;;5030948;28;20025;-53
2023/05/26 11:22:10;;;;;;;11.65;2.65;;;17.60;98.40;;;;;;5030479;28;20029;-57
2023/05/26 11:24:36;;;;;;;11.35;2.45;;;17.40;99.00;;;;;;5030347;28;20029;-55
2023/05/26 11:27:05;;;;;;;11.15;2.88;;;17.40;98.90;;;;;;5030980;28;20025;-55
2023/05/26 11:29:31;;;;;;;;;;;17.40;98.60;;;;;;5031325;28;20021;-53
2023/05/26 11:31:57;;;;;;;11.23;2.35;;;17.40;98.60;;;;;;5030888;28;19912;-57
2023/05/26 11:34:26;;;;;;;12.93;2.35;;;17.60;99.10;;;;;;5030503;28;20216;-57
2023/05/26 11:36:53;;;;;;;13.00;2.40;;;17.70;98.30;;;;;;5030553;28;20048;-56
2023/05/26 11:39:21;;;;;;;13.77;2.90;;;17.90;98.90;;;;;;5030543;28;20038;-55
2023/05/26 11:41:47;;;;;;;11.80;2.13;;;17.90;97.00;;;;;;5030614;28;20075;-56
2023/05/26 11:44:13;;;;;;;14.93;4.93;;;18.00;96.80;;;;;;5030360;28;20474;-56
2023/05/26 11:46:40;;;;;;;9.95;2.20;;;18.00;96.90;;;;;;5030601;28;20025;-54
2023/05/26 11:49:16;;;;;;;9.73;2.67;;;17.90;96.70;;;;;;5030531;28;20029;-56
2023/05/26 11:51:53;;;;;;;6.97;1.80;;;18.00;96.10;;;;;;5030104;28;20549;-56
2023/05/26 11:54:19;;;;;;;12.75;3.53;;;18.00;96.30;;;;;;5030604;28;20033;-55
2023/05/26 11:56:46;;;;;;;13.10;2.63;;;18.10;96.40;;;;;;5029128;28;20163;-56
2023/05/26 11:59:20;;;;;;;11.50;2.15;;;18.20;95.20;;;;;;5030535;28;20022;-58
2023/05/26 12:01:47;;;;;;;12.00;2.50;;;18.20;95.50;;;;;;5030375;28;20029;-57
2023/05/26 12:04:13;;;;;;;12.55;2.78;;;18.20;95.70;;;;;;5030260;28;20025;-57
2023/05/26 12:06:43;;;;;;;6.25;1.98;;;18.20;96.40;;;;;;5030552;28;20132;-55
2023/05/26 12:09:22;;;;;;;10.90;3.00;;;18.30;95.70;;;;;;5030441;28;20025;-58
2023/05/26 12:11:51;;;;;;;13.18;2.22;;;18.30;94.20;;;;;;5030383;28;20029;-56
2023/05/26 12:14:16;;;;;;;4.30;1.75;;;18.40;94.90;;;;;;5030339;28;20026;-57
2023/05/26 12:16:43;;;;;;;10.50;1.83;;;18.30;94.50;;;;;;5030357;28;20026;-56
2023/05/26 12:19:10;;;;;;;9.23;2.03;;;18.30;94.30;;;;;;5030210;28;20425;-58
2023/05/26 12:21:58;;;;;;;8.55;2.08;;;18.40;93.10;;;;;;5030377;28;20025;-57
2023/05/26 12:24:36;;;;;;;13.10;2.10;;;18.40;92.80;;;;;;5030439;28;20088;-55
2023/05/26 12:27:09;;;;;;;9.10;1.70;;;18.40;92.80;;;;;;5030409;28;20796;-57
2023/05/26 12:29:42;;;;;;;5.93;1.65;;;18.30;92.40;;;;;;5030381;28;20021;-55
2023/05/26 12:32:08;;;;;;;6.88;1.92;;;18.40;92.20;;;;;;5029975;28;20421;-55
2023/05/26 12:34:35;;;;;;;5.88;1.85;;;18.40;92.00;;;;;;5030342;28;20211;-56
2023/05/26 12:37:01;;;;;;;6.50;1.88;;;18.50;91.60;;;;;;5031662;28;20116;-57
2023/05/26 12:39:28;;;;;;;7.57;2.05;;;18.60;91.50;;;;;;5033818;28;20057;-56
2023/05/26 12:41:54;;;;;;;10.57;1.95;;;18.70;90.70;;;;;;5033962;28;20025;-57
2023/05/26 12:44:19;;;;;;;9.27;2.53;;;18.60;90.20;;;;;;5033800;28;20075;-55
2023/05/26 12:46:46;;;;;;;5.97;1.58;;;18.60;89.90;;;;;;5034055;28;20466;-56
2023/05/26 12:49:12;;;;;;;8.10;1.88;;;18.60;89.10;;;;;;5033762;28;20036;-53